Time;durP1;ratioP1;P1;durP2;ratioP2;P2;SDS_P1;SDS_P2;PMS_P1;PMS_P2;Temp;Humidity;BMP_temperature;BMP_pressure;BME280_temperature;BME280_humidity;BME280_pressure;Samples;Min_cycle;Max_cycle;Signal;HPM_P1;HPM_P2
2022/08/01 00:02:14;;;;;;;1.48;0.98;;;23.70;67.50;;;;;;4967998;28;20175;-79
2022/08/01 00:04:40;;;;;;;1.75;1.17;;;23.70;67.60;;;;;;4982734;28;20108;-79
2022/08/01 00:07:05;;;;;;;1.93;1.10;;;23.70;67.70;;;;;;4973738;28;20533;-79
2022/08/01 00:09:31;;;;;;;1.67;0.97;;;23.60;67.60;;;;;;4971229;28;20557;-78
2022/08/01 00:11:57;;;;;;;1.95;1.10;;;23.60;67.60;;;;;;4974735;28;20459;-79
2022/08/01 00:14:23;;;;;;;2.90;1.10;;;23.60;67.60;;;;;;4973848;28;20018;-79
2022/08/01 00:16:49;;;;;;;2.77;1.13;;;23.60;67.60;;;;;;4991994;28;20367;-80
2022/08/01 00:19:15;;;;;;;1.95;1.10;;;23.50;67.60;;;;;;4977891;28;20022;-79
2022/08/01 00:21:41;;;;;;;1.98;1.27;;;23.60;67.80;;;;;;4982870;28;20038;-79
2022/08/01 00:24:07;;;;;;;2.13;1.20;;;23.50;67.80;;;;;;4993539;28;20018;-80
2022/08/01 00:26:32;;;;;;;3.70;1.20;;;23.40;67.70;;;;;;4980555;28;20121;-79
2022/08/01 00:28:58;;;;;;;1.58;1.17;;;23.40;67.90;;;;;;4996012;28;20244;-79
2022/08/01 00:31:24;;;;;;;1.60;1.27;;;23.30;67.90;;;;;;4999230;28;20034;-79
2022/08/01 00:33:49;;;;;;;1.60;1.17;;;23.30;68.10;;;;;;4974671;28;20026;-79
2022/08/01 00:36:15;;;;;;;1.90;1.10;;;23.30;68.20;;;;;;4974876;28;20057;-80
2022/08/01 00:38:41;;;;;;;4.30;1.33;;;23.30;68.40;;;;;;4967053;28;20050;-80
2022/08/01 00:41:07;;;;;;;2.45;1.38;;;23.20;68.40;;;;;;4984050;28;20030;-80
2022/08/01 00:43:32;;;;;;;2.70;1.40;;;23.20;68.50;;;;;;4979205;28;20031;-79
2022/08/01 00:45:58;;;;;;;2.28;1.20;;;23.20;68.60;;;;;;4998123;28;20285;-79
2022/08/01 00:48:24;;;;;;;1.80;1.13;;;23.20;68.70;;;;;;4984363;28;20384;-79
2022/08/01 00:50:50;;;;;;;2.20;1.40;;;23.20;68.70;;;;;;4971989;28;20266;-79
2022/08/01 00:53:16;;;;;;;3.17;1.40;;;23.20;68.90;;;;;;4976637;28;20045;-79
2022/08/01 00:55:42;;;;;;;1.73;1.13;;;23.20;68.90;;;;;;4974982;28;20321;-80
2022/08/01 00:58:08;;;;;;;2.22;1.40;;;23.20;69.20;;;;;;4999644;28;20043;-79
2022/08/01 01:00:35;;;;;;;2.57;1.43;;;23.10;69.00;;;;;;4997512;28;20389;-80
2022/08/01 01:03:01;;;;;;;2.03;1.50;;;23.20;69.40;;;;;;4992682;28;20022;-79
2022/08/01 01:05:27;;;;;;;1.60;1.30;;;23.20;69.40;;;;;;4960733;28;20381;-78
2022/08/01 01:08:08;;;;;;;2.33;1.50;;;23.20;69.40;;;;;;4985050;28;20030;-79
2022/08/01 01:10:55;;;;;;;3.67;1.70;;;23.10;70.30;;;;;;4982189;28;20107;-80
2022/08/01 01:13:35;;;;;;;1.70;1.20;;;23.20;70.50;;;;;;5000604;28;20022;-79
2022/08/01 01:16:13;;;;;;;2.30;1.42;;;23.20;70.40;;;;;;4995154;28;20029;-79
2022/08/01 01:18:57;;;;;;;2.25;1.50;;;23.10;70.40;;;;;;5003282;28;20033;-79
2022/08/01 01:21:42;;;;;;;2.58;1.73;;;23.10;70.70;;;;;;4979875;28;20490;-79
2022/08/01 01:24:07;;;;;;;2.35;1.55;;;23.10;70.80;;;;;;4979818;28;20042;-79
2022/08/01 01:26:43;;;;;;;3.77;1.70;;;23.10;69.80;;;;;;4994185;28;20047;-79
2022/08/01 01:29:16;;;;;;;2.55;1.58;;;23.10;69.80;;;;;;4992003;28;20030;-79
2022/08/01 01:32:05;;;;;;;1.50;1.37;;;23.20;70.40;;;;;;4992089;28;20034;-79
2022/08/01 01:34:35;;;;;;;2.38;1.30;;;23.10;70.70;;;;;;4994481;28;20037;-79
2022/08/01 01:37:04;;;;;;;1.83;1.42;;;23.10;70.20;;;;;;4979444;28;20029;-79
2022/08/01 01:39:32;;;;;;;2.88;1.75;;;23.10;70.00;;;;;;4984030;28;20029;-79
2022/08/01 01:41:59;;;;;;;2.17;1.63;;;23.10;70.10;;;;;;4984170;28;20121;-79
2022/08/01 01:44:27;;;;;;;2.20;1.50;;;23.10;70.20;;;;;;4995611;28;20437;-79
2022/08/01 01:46:54;;;;;;;3.28;1.77;;;23.10;70.20;;;;;;4997187;28;20255;-79
2022/08/01 01:49:26;;;;;;;2.33;1.60;;;23.20;70.30;;;;;;4993048;28;20029;-79
2022/08/01 01:51:56;;;;;;;4.47;1.80;;;23.20;70.70;;;;;;4984721;28;20318;-79
2022/08/01 01:54:24;;;;;;;3.35;1.83;;;23.20;70.50;;;;;;4982057;28;20026;-79
2022/08/01 01:56:51;;;;;;;4.17;1.93;;;23.20;70.40;;;;;;4978446;28;20165;-79
2022/08/01 01:59:24;;;;;;;3.83;2.00;;;23.10;70.40;;;;;;4991721;28;20121;-79
2022/08/01 02:01:52;;;;;;;3.38;2.13;;;23.10;70.80;;;;;;4964318;28;20125;-79
2022/08/01 02:04:19;;;;;;;3.22;2.15;;;23.20;70.60;;;;;;4992523;28;20289;-79
2022/08/01 02:06:46;;;;;;;3.67;2.28;;;23.10;70.50;;;;;;4971139;28;20029;-79
2022/08/01 02:09:19;;;;;;;3.50;2.00;;;23.10;70.70;;;;;;4988103;28;20067;-79
2022/08/01 02:11:46;;;;;;;3.08;2.00;;;23.10;70.90;;;;;;4980024;28;20292;-79
2022/08/01 02:14:13;;;;;;;5.25;2.40;;;23.10;70.70;;;;;;4980328;28;20441;-79
2022/08/01 02:16:42;;;;;;;3.63;2.20;;;23.10;70.70;;;;;;4995656;28;20025;-79
2022/08/01 02:19:08;;;;;;;3.20;2.00;;;23.10;70.90;;;;;;4984229;28;20353;-79
2022/08/01 02:21:49;;;;;;;3.67;2.03;;;23.10;70.80;;;;;;4986494;28;20379;-79
2022/08/01 02:24:23;;;;;;;3.72;2.20;;;23.20;71.80;;;;;;4996150;28;20331;-79
2022/08/01 02:26:52;;;;;;;4.75;2.40;;;23.20;71.30;;;;;;4978577;28;20030;-79
2022/08/01 02:29:37;;;;;;;4.47;2.50;;;23.20;71.00;;;;;;5002352;28;20034;-79
2022/08/01 02:32:06;;;;;;;3.90;2.38;;;23.10;71.30;;;;;;4961717;28;20410;-79
2022/08/01 02:34:34;;;;;;;4.30;2.60;;;23.10;71.00;;;;;;4978769;28;20033;-79
2022/08/01 02:37:02;;;;;;;5.72;2.45;;;23.10;71.20;;;;;;4968559;28;20025;-78
2022/08/01 02:39:31;;;;;;;4.47;2.47;;;23.10;71.20;;;;;;4988742;28;20423;-79
2022/08/01 02:42:00;;;;;;;3.20;2.50;;;23.10;71.40;;;;;;4994723;28;20414;-79
2022/08/01 02:44:35;;;;;;;4.15;2.72;;;23.00;71.50;;;;;;4973357;28;20460;-79
2022/08/01 02:47:02;;;;;;;4.43;2.60;;;23.00;71.90;;;;;;4984534;28;20530;-79
2022/08/01 02:49:37;;;;;;;4.97;2.78;;;23.00;71.50;;;;;;5014149;28;20465;-79
2022/08/01 02:52:08;;;;;;;5.07;2.63;;;23.00;71.80;;;;;;4992473;28;20274;-79
2022/08/01 02:54:35;;;;;;;5.43;3.10;;;23.00;71.80;;;;;;4990714;28;20580;-79
2022/08/01 02:57:03;;;;;;;5.22;3.05;;;23.00;71.80;;;;;;4980068;28;20397;-79
2022/08/01 02:59:31;;;;;;;6.03;3.30;;;22.90;71.80;;;;;;4983091;28;20042;-79
2022/08/01 03:01:59;;;;;;;6.90;3.75;;;23.00;72.20;;;;;;4990368;28;20491;-79
2022/08/01 03:04:27;;;;;;;7.65;4.05;;;22.90;72.30;;;;;;5003996;28;20580;-79
2022/08/01 03:06:54;;;;;;;8.98;4.45;;;22.90;72.30;;;;;;4981835;28;20021;-79
2022/08/01 03:09:21;;;;;;;7.88;4.25;;;22.80;72.30;;;;;;4996619;28;20034;-79
2022/08/01 03:11:48;;;;;;;9.20;4.30;;;22.80;72.50;;;;;;5000324;28;20097;-79
2022/08/01 03:14:15;;;;;;;8.63;4.35;;;22.80;72.60;;;;;;4968147;28;20298;-79
2022/08/01 03:16:43;;;;;;;10.32;4.60;;;22.80;72.70;;;;;;4998618;28;20265;-80
2022/08/01 03:19:11;;;;;;;8.38;4.47;;;22.80;73.00;;;;;;4999833;28;20206;-79
2022/08/01 03:21:38;;;;;;;8.48;4.30;;;22.70;73.90;;;;;;5001687;28;20022;-80
2022/08/01 03:24:06;;;;;;;7.47;4.27;;;22.70;73.20;;;;;;4976130;28;20152;-80
2022/08/01 03:26:35;;;;;;;9.55;4.63;;;22.70;73.40;;;;;;5003909;28;20025;-79
2022/08/01 03:29:09;;;;;;;8.52;4.43;;;22.70;73.70;;;;;;4977698;28;20740;-79
2022/08/01 03:31:37;;;;;;;7.40;4.28;;;22.60;74.00;;;;;;4983008;28;20038;-80
2022/08/01 03:34:04;;;;;;;7.60;4.32;;;22.70;73.70;;;;;;4985891;28;20261;-79
2022/08/01 03:36:33;;;;;;;7.43;4.00;;;22.60;73.60;;;;;;4996371;28;20026;-80
2022/08/01 03:39:02;;;;;;;5.68;3.65;;;22.60;73.90;;;;;;4978275;28;20034;-79
2022/08/01 03:41:35;;;;;;;6.00;3.50;;;22.60;74.10;;;;;;4989369;28;20025;-80
2022/08/01 03:44:07;;;;;;;7.55;3.38;;;22.60;74.60;;;;;;4982904;28;20040;-80
2022/08/01 03:46:47;;;;;;;4.88;3.20;;;22.50;74.20;;;;;;4972506;28;20029;-80
2022/08/01 03:49:18;;;;;;;4.83;2.70;;;22.50;74.40;;;;;;4981181;28;20147;-80
2022/08/01 03:51:49;;;;;;;7.63;3.17;;;22.50;74.70;;;;;;4996624;28;20026;-80
2022/08/01 03:54:20;;;;;;;5.78;2.85;;;22.50;74.40;;;;;;4972672;28;20159;-80
2022/08/01 03:56:47;;;;;;;5.10;2.83;;;22.50;74.50;;;;;;4983939;28;20058;-80
2022/08/01 03:59:16;;;;;;;5.22;3.00;;;22.40;74.40;;;;;;4986807;28;20259;-81
2022/08/01 04:01:43;;;;;;;6.63;2.83;;;22.50;74.70;;;;;;4978982;28;20083;-80
2022/08/01 04:04:09;;;;;;;4.75;2.78;;;22.40;74.60;;;;;;4978255;28;20034;-80
2022/08/01 04:06:41;;;;;;;4.53;2.78;;;22.40;74.60;;;;;;4996887;28;20520;-80
2022/08/01 04:09:07;;;;;;;5.07;2.75;;;22.40;75.00;;;;;;4977367;28;20311;-80
2022/08/01 04:11:33;;;;;;;5.80;3.08;;;22.40;74.80;;;;;;4981430;28;20049;-80
2022/08/01 04:13:59;;;;;;;4.60;2.67;;;22.40;74.90;;;;;;4991530;28;20072;-80
2022/08/01 04:16:25;;;;;;;4.28;2.72;;;22.40;75.00;;;;;;4973688;28;20018;-80
2022/08/01 04:18:51;;;;;;;4.78;2.70;;;22.40;75.00;;;;;;4989496;28;20429;-80
2022/08/01 04:21:22;;;;;;;5.03;2.43;;;22.40;75.00;;;;;;4966129;28;20048;-80
2022/08/01 04:23:51;;;;;;;4.53;2.35;;;22.40;75.60;;;;;;5001208;28;20566;-80
2022/08/01 04:26:19;;;;;;;4.30;2.13;;;22.40;75.30;;;;;;4979868;28;20472;-80
2022/08/01 04:28:47;;;;;;;5.70;2.50;;;22.30;75.30;;;;;;5004684;28;20485;-80
2022/08/01 04:31:16;;;;;;;5.40;2.80;;;22.30;75.30;;;;;;4972333;28;20107;-80
2022/08/01 04:33:49;;;;;;;4.07;2.40;;;22.30;75.70;;;;;;4999171;28;20140;-80
2022/08/01 04:36:19;;;;;;;4.63;2.10;;;22.30;75.70;;;;;;4979107;28;20490;-80
2022/08/01 04:38:46;;;;;;;4.93;2.28;;;22.30;75.70;;;;;;4981230;28;20037;-80
2022/08/01 04:41:13;;;;;;;4.82;2.45;;;22.40;75.60;;;;;;4985754;28;20033;-80
2022/08/01 04:43:40;;;;;;;4.72;2.30;;;22.30;75.60;;;;;;4984140;28;20045;-79
2022/08/01 04:46:07;;;;;;;4.53;2.23;;;22.30;75.70;;;;;;4979541;28;20033;-80
2022/08/01 04:48:36;;;;;;;3.67;2.13;;;22.40;75.80;;;;;;4982902;28;20659;-80
2022/08/01 04:51:03;;;;;;;4.05;2.00;;;22.40;76.00;;;;;;4989985;28;20042;-80
2022/08/01 04:53:32;;;;;;;4.38;2.05;;;22.40;75.90;;;;;;4988173;28;20031;-80
2022/08/01 04:55:58;;;;;;;2.78;1.77;;;22.40;75.90;;;;;;4982555;28;20100;-80
2022/08/01 04:58:23;;;;;;;3.30;1.87;;;22.40;75.90;;;;;;4984052;28;20149;-80
2022/08/01 05:00:49;;;;;;;4.50;1.90;;;22.50;76.00;;;;;;4982823;28;20037;-80
2022/08/01 05:03:16;;;;;;;4.40;2.00;;;22.50;76.00;;;;;;4960493;28;20544;-80
2022/08/01 05:05:42;;;;;;;3.03;1.50;;;22.50;76.10;;;;;;4998389;28;20045;-80
2022/08/01 05:08:07;;;;;;;2.80;1.58;;;22.50;76.00;;;;;;4976724;28;22787;-79
2022/08/01 05:10:39;;;;;;;3.90;1.75;;;22.50;76.00;;;;;;4983211;28;20030;-80
2022/08/01 05:13:06;;;;;;;3.03;1.50;;;22.60;76.00;;;;;;4986225;28;20030;-80
2022/08/01 05:15:32;;;;;;;2.80;1.60;;;22.60;76.70;;;;;;4995213;28;20076;-80
2022/08/01 05:17:58;;;;;;;2.47;1.60;;;22.60;76.00;;;;;;4974669;28;20446;-79
2022/08/01 05:20:23;;;;;;;4.25;1.80;;;22.60;75.90;;;;;;4992977;28;20394;-80
2022/08/01 05:22:49;;;;;;;3.63;1.50;;;22.70;75.90;;;;;;4976809;28;20530;-80
2022/08/01 05:25:15;;;;;;;1.90;1.37;;;22.70;75.90;;;;;;4970483;28;20056;-80
2022/08/01 05:27:41;;;;;;;3.03;1.60;;;22.70;76.50;;;;;;4995261;28;20065;-80
2022/08/01 05:30:08;;;;;;;3.38;1.55;;;22.70;75.70;;;;;;4983702;28;20022;-80
2022/08/01 05:32:34;;;;;;;2.20;1.45;;;22.70;75.80;;;;;;4956741;28;20688;-79
2022/08/01 05:35:00;;;;;;;2.53;1.40;;;22.70;75.80;;;;;;4998406;28;20032;-80
2022/08/01 05:37:26;;;;;;;2.63;1.27;;;22.70;75.80;;;;;;4993332;28;20059;-80
2022/08/01 05:39:51;;;;;;;2.57;1.30;;;22.70;75.90;;;;;;4974522;28;20119;-80
2022/08/01 05:42:17;;;;;;;1.63;1.23;;;22.80;75.90;;;;;;4984963;28;20080;-80
2022/08/01 05:44:43;;;;;;;2.90;1.42;;;22.70;75.90;;;;;;4987366;28;20038;-80
2022/08/01 05:47:09;;;;;;;1.70;1.30;;;22.80;76.10;;;;;;4957391;28;20041;-80
2022/08/01 05:49:35;;;;;;;2.90;1.23;;;22.80;76.20;;;;;;4994142;28;20034;-80
2022/08/01 05:52:01;;;;;;;2.47;1.30;;;22.80;76.20;;;;;;4985263;28;20022;-79
2022/08/01 05:54:27;;;;;;;2.33;1.30;;;22.90;76.30;;;;;;4987663;28;20053;-80
2022/08/01 05:56:54;;;;;;;2.50;1.50;;;22.90;76.40;;;;;;4984397;28;20053;-79
2022/08/01 05:59:20;;;;;;;3.25;1.63;;;22.90;76.30;;;;;;4987858;28;20119;-79
2022/08/01 06:01:46;;;;;;;2.10;1.40;;;23.00;76.30;;;;;;4991678;28;20038;-82
2022/08/01 06:04:12;;;;;;;2.10;1.48;;;23.00;76.20;;;;;;4976921;28;20224;-82
2022/08/01 06:06:37;;;;;;;3.23;1.67;;;23.10;76.20;;;;;;4995521;28;20210;-82
2022/08/01 06:09:03;;;;;;;3.00;1.50;;;23.10;76.10;;;;;;4989755;28;20026;-82
2022/08/01 06:11:29;;;;;;;2.10;1.50;;;23.20;76.10;;;;;;4994075;28;20026;-82
2022/08/01 06:13:54;;;;;;;2.83;1.57;;;23.20;76.10;;;;;;4958126;28;20464;-81
2022/08/01 06:16:20;;;;;;;2.00;1.40;;;23.20;76.20;;;;;;4994149;28;20561;-82
2022/08/01 06:18:46;;;;;;;2.58;1.58;;;23.20;76.10;;;;;;4974883;28;20022;-82
2022/08/01 06:21:11;;;;;;;2.88;1.85;;;23.30;76.30;;;;;;5005464;28;20518;-82
2022/08/01 06:23:37;;;;;;;2.87;1.70;;;23.30;76.20;;;;;;4991769;28;20037;-80
2022/08/01 06:26:03;;;;;;;2.70;1.83;;;23.40;76.20;;;;;;4988129;28;20239;-80
2022/08/01 06:28:29;;;;;;;3.27;1.50;;;23.40;76.10;;;;;;4976025;28;20029;-80
2022/08/01 06:30:55;;;;;;;3.35;1.60;;;23.40;76.10;;;;;;4980158;28;20041;-80
2022/08/01 06:33:21;;;;;;;3.45;1.80;;;23.50;76.10;;;;;;4995052;28;20076;-80
2022/08/01 06:35:46;;;;;;;2.47;1.53;;;23.50;76.00;;;;;;4961498;28;20038;-80
2022/08/01 06:38:12;;;;;;;2.15;1.52;;;23.50;76.10;;;;;;4974748;28;20266;-80
2022/08/01 06:40:38;;;;;;;2.63;1.58;;;23.60;76.20;;;;;;4987075;28;20105;-80
2022/08/01 06:43:04;;;;;;;2.97;1.60;;;23.70;76.20;;;;;;4966830;28;20148;-80
2022/08/01 06:45:30;;;;;;;2.55;1.63;;;23.70;76.20;;;;;;4985041;28;20030;-79
2022/08/01 06:47:55;;;;;;;2.27;1.40;;;23.80;76.10;;;;;;4997869;28;20229;-79
2022/08/01 06:50:21;;;;;;;1.98;1.40;;;23.90;75.90;;;;;;4978527;28;20038;-79
2022/08/01 06:52:47;;;;;;;1.93;1.40;;;23.90;75.70;;;;;;4985123;28;20252;-79
2022/08/01 06:55:14;;;;;;;2.53;1.40;;;24.00;75.80;;;;;;4978625;28;20052;-80
2022/08/01 06:57:52;;;;;;;1.42;1.20;;;24.10;76.00;;;;;;4978974;28;20112;-80
2022/08/01 07:00:22;;;;;;;1.90;1.20;;;24.20;75.90;;;;;;4985598;28;20034;-80
2022/08/01 07:02:51;;;;;;;2.35;1.45;;;24.30;75.80;;;;;;4984708;28;20254;-80
2022/08/01 07:05:17;;;;;;;1.38;1.02;;;24.40;75.80;;;;;;4972710;28;20113;-80
2022/08/01 07:07:43;;;;;;;1.67;1.13;;;24.50;75.60;;;;;;4977666;28;20346;-80
2022/08/01 07:10:10;;;;;;;2.13;1.20;;;24.50;75.30;;;;;;4993573;28;20109;-79
2022/08/01 07:12:37;;;;;;;1.40;1.20;;;24.70;75.50;;;;;;4975379;28;21028;-80
2022/08/01 07:15:07;;;;;;;1.95;1.20;;;24.70;75.40;;;;;;4991844;28;20482;-80
2022/08/01 07:17:40;;;;;;;1.40;1.10;;;24.90;75.20;;;;;;4979551;28;20061;-79
2022/08/01 07:20:08;;;;;;;1.60;1.25;;;24.90;75.00;;;;;;4994841;28;20040;-80
2022/08/01 07:22:34;;;;;;;1.27;1.17;;;25.00;74.80;;;;;;4963275;28;20033;-80
2022/08/01 07:25:00;;;;;;;1.13;1.02;;;25.10;74.50;;;;;;4977955;28;20611;-80
2022/08/01 07:27:25;;;;;;;1.77;1.10;;;25.20;74.20;;;;;;4987264;28;20033;-79
2022/08/01 07:29:51;;;;;;;1.05;0.95;;;25.20;74.00;;;;;;4970160;28;20030;-80
2022/08/01 07:32:16;;;;;;;1.57;1.00;;;25.30;74.10;;;;;;4982307;28;20555;-80
2022/08/01 07:34:42;;;;;;;2.15;0.95;;;25.30;74.00;;;;;;4982035;28;20022;-80
2022/08/01 07:37:08;;;;;;;1.90;1.03;;;25.40;73.90;;;;;;4981370;28;20014;-80
2022/08/01 07:39:33;;;;;;;1.10;1.00;;;25.50;73.60;;;;;;4993577;28;20032;-80
2022/08/01 07:41:59;;;;;;;1.10;1.00;;;25.60;73.30;;;;;;4974765;28;20027;-80
2022/08/01 07:44:25;;;;;;;0.97;0.90;;;25.60;73.10;;;;;;4972766;28;20045;-80
2022/08/01 07:46:50;;;;;;;1.55;1.00;;;25.70;72.90;;;;;;4981502;28;20047;-79
2022/08/01 07:49:16;;;;;;;1.10;0.90;;;25.70;72.60;;;;;;4981550;28;20025;-80
2022/08/01 07:51:42;;;;;;;1.48;0.80;;;25.80;72.50;;;;;;4954975;28;20034;-80
2022/08/01 07:54:08;;;;;;;1.50;0.87;;;25.80;72.30;;;;;;4979333;28;20033;-80
2022/08/01 07:56:33;;;;;;;1.15;0.88;;;25.80;72.90;;;;;;4969223;28;20034;-79
2022/08/01 07:58:59;;;;;;;1.10;1.00;;;25.90;72.10;;;;;;4990761;28;20068;-80
2022/08/01 08:01:25;;;;;;;0.90;0.90;;;26.00;72.00;;;;;;4965312;28;20030;-80
2022/08/01 08:03:51;;;;;;;1.75;0.90;;;26.00;72.10;;;;;;4988563;28;20413;-80
2022/08/01 08:06:16;;;;;;;0.90;0.90;;;26.00;71.70;;;;;;4987003;28;20030;-79
2022/08/01 08:08:42;;;;;;;1.00;0.90;;;26.10;71.60;;;;;;4973552;28;20307;-80
2022/08/01 08:11:08;;;;;;;1.80;0.95;;;26.10;71.50;;;;;;4991111;28;20021;-80
2022/08/01 08:13:33;;;;;;;1.83;1.10;;;26.20;71.40;;;;;;4982390;28;20383;-80
2022/08/01 08:15:59;;;;;;;2.83;1.17;;;26.30;71.50;;;;;;4972739;28;20022;-79
2022/08/01 08:18:25;;;;;;;2.10;1.13;;;26.30;71.30;;;;;;4995820;28;20732;-80
2022/08/01 08:20:51;;;;;;;1.95;1.30;;;26.40;71.50;;;;;;4982843;28;20117;-80
2022/08/01 08:26:01;;;;;;;1.38;1.27;;;26.80;72.20;;;;;;4989781;28;20101;-79
2022/08/01 08:28:27;;;;;;;2.37;1.50;;;26.90;71.70;;;;;;4980316;28;20054;-80
2022/08/01 08:30:56;;;;;;;1.55;1.40;;;27.10;71.40;;;;;;4975833;28;20618;-80
2022/08/01 08:33:22;;;;;;;1.38;1.27;;;27.30;71.70;;;;;;4974627;28;20498;-80
2022/08/01 08:35:47;;;;;;;1.47;1.30;;;27.60;71.80;;;;;;4975150;28;20363;-79
2022/08/01 08:38:13;;;;;;;1.40;1.30;;;27.80;70.90;;;;;;4972163;28;20097;-80
2022/08/01 08:40:39;;;;;;;1.20;1.10;;;28.10;70.10;;;;;;4986274;28;20315;-80
2022/08/01 08:43:05;;;;;;;1.30;1.20;;;28.20;69.20;;;;;;4995590;28;20396;-80
2022/08/01 08:45:32;;;;;;;1.00;1.00;;;28.30;68.30;;;;;;4974580;28;20034;-79
2022/08/01 08:47:59;;;;;;;1.40;0.97;;;28.40;67.80;;;;;;4967436;28;20038;-79
2022/08/01 08:50:26;;;;;;;0.88;0.85;;;28.50;67.50;;;;;;4977842;28;20120;-80
2022/08/01 08:52:54;;;;;;;0.90;0.90;;;28.50;67.00;;;;;;4955170;28;20398;-79
2022/08/01 08:55:21;;;;;;;1.45;1.00;;;28.50;66.70;;;;;;4984988;28;20094;-80
2022/08/01 08:57:47;;;;;;;1.10;1.00;;;28.60;68.30;;;;;;4988610;28;20018;-80
2022/08/01 09:00:14;;;;;;;1.37;0.90;;;28.90;69.50;;;;;;4982930;28;20038;-80
2022/08/01 09:02:46;;;;;;;0.80;0.80;;;29.20;68.20;;;;;;4953185;28;20034;-79
2022/08/01 09:05:13;;;;;;;1.48;0.90;;;29.50;67.00;;;;;;4975969;28;20243;-80
2022/08/01 09:07:39;;;;;;;0.80;0.80;;;29.60;66.10;;;;;;4977039;28;20586;-79
2022/08/01 09:10:07;;;;;;;1.00;0.90;;;29.70;66.20;;;;;;4971171;28;20026;-80
2022/08/01 09:12:33;;;;;;;1.57;1.00;;;29.80;65.00;;;;;;4958521;28;20650;-79
2022/08/01 09:14:58;;;;;;;1.10;0.90;;;29.90;64.50;;;;;;4975182;28;20034;-76
2022/08/01 09:17:24;;;;;;;1.13;1.00;;;29.90;64.20;;;;;;4985820;28;20475;-77
2022/08/01 09:19:55;;;;;;;1.00;1.00;;;30.00;64.60;;;;;;4981784;28;20555;-78
2022/08/01 09:22:24;;;;;;;1.17;1.08;;;30.20;64.00;;;;;;4988487;28;20026;-79
2022/08/01 09:25:01;;;;;;;1.20;1.10;;;30.40;64.50;;;;;;5297568;23;20097;-80
2022/08/01 09:27:28;;;;;;;1.10;1.00;;;30.60;62.70;;;;;;4945760;28;20734;-81
2022/08/01 09:29:54;;;;;;;1.00;0.90;;;30.90;64.80;;;;;;4940376;28;20023;-81
2022/08/01 09:32:20;;;;;;;0.90;0.90;;;31.10;63.40;;;;;;4946323;28;20039;-81
2022/08/01 09:34:46;;;;;;;1.30;1.10;;;31.30;63.40;;;;;;4928073;28;20106;-81
2022/08/01 09:37:17;;;;;;;1.43;1.10;;;31.60;63.40;;;;;;4941937;28;20033;-82
2022/08/01 09:39:45;;;;;;;1.50;1.20;;;31.90;63.40;;;;;;4910937;28;20099;-81
2022/08/01 09:42:25;;;;;;;1.48;0.93;;;32.20;62.90;;;;;;4932489;28;20268;-82
2022/08/01 09:44:52;;;;;;;1.10;1.00;;;32.50;59.80;;;;;;4945503;28;20041;-81
2022/08/01 09:47:23;;;;;;;1.50;1.10;;;32.60;60.40;;;;;;4929098;28;20032;-82
2022/08/01 09:49:56;;;;;;;1.25;1.13;;;32.80;60.40;;;;;;4921695;28;20527;-81
2022/08/01 09:52:24;;;;;;;1.55;1.10;;;33.10;59.70;;;;;;4937379;28;20123;-80
2022/08/01 09:54:55;;;;;;;1.60;1.50;;;33.40;59.80;;;;;;4907309;28;20380;-81
2022/08/01 09:57:21;;;;;;;1.40;1.30;;;33.60;58.30;;;;;;4946094;28;20053;-80
2022/08/01 09:59:50;;;;;;;1.50;1.40;;;33.80;58.70;;;;;;4941384;28;20023;-81
2022/08/01 10:02:38;;;;;;;2.42;1.50;;;34.10;58.10;;;;;;4927440;28;20196;-80
2022/08/01 10:05:07;;;;;;;2.13;1.48;;;34.40;55.40;;;;;;4936430;28;20035;-81
2022/08/01 10:07:34;;;;;;;2.10;1.73;;;34.70;57.30;;;;;;4939098;28;20067;-81
2022/08/01 10:10:14;;;;;;;1.60;1.50;;;35.00;57.20;;;;;;4898460;28;20070;-80
2022/08/01 10:12:41;;;;;;;1.70;1.60;;;35.30;53.90;;;;;;4942801;28;20083;-79
2022/08/01 10:15:09;;;;;;;1.50;1.40;;;35.30;53.80;;;;;;4950966;28;20161;-81
2022/08/01 10:17:39;;;;;;;1.85;1.75;;;35.40;53.40;;;;;;4921265;29;20054;-79
2022/08/01 10:20:06;;;;;;;1.63;1.52;;;35.50;52.50;;;;;;4940069;28;20035;-79
2022/08/01 10:22:34;;;;;;;1.50;1.40;;;35.50;52.90;;;;;;4933085;28;20035;-79
2022/08/01 10:25:04;;;;;;;2.17;1.97;;;35.60;52.10;;;;;;4932438;28;20051;-79
2022/08/01 10:27:35;;;;;;;3.05;1.95;;;35.70;51.80;;;;;;4969509;28;20093;-80
2022/08/01 10:30:04;;;;;;;2.42;2.05;;;35.90;52.40;;;;;;4938167;28;20053;-79
2022/08/01 10:32:32;;;;;;;1.70;1.60;;;36.20;52.30;;;;;;4951399;28;20031;-80
2022/08/01 10:34:59;;;;;;;1.50;1.40;;;36.30;51.70;;;;;;4945641;28;20030;-82
2022/08/01 10:37:25;;;;;;;1.50;1.40;;;36.50;51.40;;;;;;4951782;28;20517;-81
2022/08/01 10:39:53;;;;;;;1.60;1.50;;;36.70;51.20;;;;;;4946019;28;20030;-79
2022/08/01 10:42:18;;;;;;;2.33;2.13;;;37.00;50.40;;;;;;4936389;28;20041;-81
2022/08/01 10:44:47;;;;;;;2.10;1.90;;;37.10;49.30;;;;;;4942830;28;21221;-81
2022/08/01 10:47:30;;;;;;;2.08;1.60;;;37.10;48.10;;;;;;4958129;28;20766;-82
2022/08/01 10:50:19;;;;;;;2.22;1.80;;;36.90;45.70;;;;;;4949523;28;20369;-83
2022/08/01 10:53:11;;;;;;;1.92;1.60;;;36.80;45.60;;;;;;4943902;28;20027;-81
2022/08/01 10:55:54;;;;;;;1.60;1.50;;;36.50;45.20;;;;;;4963118;28;20030;-80
2022/08/01 10:58:41;;;;;;;2.23;1.73;;;36.30;45.40;;;;;;4935248;28;20038;-80
2022/08/01 11:01:23;;;;;;;1.85;1.60;;;36.20;45.90;;;;;;4951387;28;20446;-80
2022/08/01 11:04:00;;;;;;;1.45;1.20;;;36.30;46.50;;;;;;4946672;28;20026;-80
2022/08/01 11:06:32;;;;;;;2.22;1.60;;;36.40;45.70;;;;;;4957591;28;20039;-80
2022/08/01 11:08:59;;;;;;;1.77;1.33;;;36.50;46.00;;;;;;4936681;28;20022;-80
2022/08/01 11:11:26;;;;;;;1.57;1.30;;;36.60;47.30;;;;;;4922265;28;20026;-80
2022/08/01 11:14:07;;;;;;;2.85;1.40;;;36.90;47.00;;;;;;4960956;28;20016;-79
2022/08/01 11:16:35;;;;;;;1.98;1.60;;;37.10;44.80;;;;;;4950433;28;20041;-81
2022/08/01 11:19:02;;;;;;;2.05;1.45;;;37.30;45.50;;;;;;4946720;28;20502;-80
2022/08/01 11:21:52;;;;;;;1.80;1.65;;;37.30;44.70;;;;;;4954101;28;20066;-83
2022/08/01 11:24:46;;;;;;;1.97;1.50;;;37.20;43.30;;;;;;4961727;28;20038;-82
2022/08/01 11:27:28;;;;;;;1.98;1.45;;;37.10;42.70;;;;;;4908110;28;20247;-83
2022/08/01 11:30:09;;;;;;;2.03;1.30;;;37.00;42.30;;;;;;4959383;28;20035;-82
2022/08/01 11:32:48;;;;;;;1.60;1.40;;;36.90;42.40;;;;;;4956083;28;20026;-83
2022/08/01 11:35:14;;;;;;;2.40;0.98;;;36.80;42.50;;;;;;4968592;28;20031;-82
2022/08/01 11:37:41;;;;;;;1.20;1.10;;;36.80;43.50;;;;;;4931593;28;20018;-83
2022/08/01 11:40:14;;;;;;;1.30;1.20;;;36.70;43.20;;;;;;4926113;28;20061;-83
2022/08/01 11:42:40;;;;;;;1.23;1.10;;;36.70;41.90;;;;;;4915144;28;20145;-82
2022/08/01 11:45:09;;;;;;;2.40;1.13;;;36.60;42.90;;;;;;4941760;28;20457;-83
2022/08/01 11:47:49;;;;;;;1.75;1.38;;;36.50;42.90;;;;;;4940238;28;20134;-82
2022/08/01 11:50:30;;;;;;;1.40;1.00;;;36.50;41.70;;;;;;4947334;28;20437;-82
2022/08/01 11:53:07;;;;;;;1.75;1.10;;;36.40;41.60;;;;;;4945750;28;20023;-83
2022/08/01 11:55:34;;;;;;;1.30;1.17;;;36.40;41.50;;;;;;4934633;28;20248;-83
2022/08/01 11:58:05;;;;;;;1.33;1.10;;;36.40;42.50;;;;;;4926275;28;20068;-83
2022/08/01 12:00:32;;;;;;;1.23;1.10;;;36.40;42.90;;;;;;4937936;28;20115;-82
2022/08/01 12:03:04;;;;;;;1.65;1.48;;;36.50;43.00;;;;;;4945024;28;20027;-83
2022/08/01 12:05:33;;;;;;;1.50;1.38;;;36.60;42.30;;;;;;4944048;28;20045;-84
2022/08/01 12:07:59;;;;;;;1.80;1.70;;;36.80;42.90;;;;;;4941038;28;20336;-82
2022/08/01 12:10:28;;;;;;;2.67;1.93;;;36.90;41.80;;;;;;4936195;28;20031;-82
2022/08/01 12:12:59;;;;;;;1.42;1.23;;;37.00;41.50;;;;;;4934149;28;20022;-84
2022/08/01 12:15:30;;;;;;;1.70;1.20;;;37.10;41.30;;;;;;4964029;28;20061;-84
2022/08/01 12:17:58;;;;;;;1.58;1.17;;;37.20;40.10;;;;;;4932309;28;20019;-83
2022/08/01 12:20:29;;;;;;;1.48;1.33;;;37.20;40.30;;;;;;4949108;28;20103;-83
2022/08/01 12:22:56;;;;;;;1.40;1.30;;;37.10;40.40;;;;;;4940019;28;20019;-82
2022/08/01 12:25:22;;;;;;;1.50;1.33;;;37.10;40.30;;;;;;4893386;28;20047;-82
2022/08/01 12:27:49;;;;;;;1.23;1.13;;;37.10;40.20;;;;;;4920993;28;20030;-83
2022/08/01 12:30:22;;;;;;;1.73;1.40;;;37.10;40.10;;;;;;4932550;28;20062;-84
2022/08/01 12:32:49;;;;;;;1.70;1.27;;;37.20;39.20;;;;;;4944254;28;20023;-83
2022/08/01 12:35:22;;;;;;;1.80;1.00;;;37.20;39.60;;;;;;4938595;28;20028;-83
2022/08/01 12:38:00;;;;;;;1.20;1.00;;;37.30;39.40;;;;;;4936135;28;20081;-83
2022/08/01 12:40:33;;;;;;;1.25;1.15;;;37.30;38.80;;;;;;4923542;28;20652;-80
2022/08/01 12:43:02;;;;;;;1.50;1.35;;;37.20;38.00;;;;;;4908939;28;20045;-82
2022/08/01 12:45:44;;;;;;;2.55;1.27;;;37.10;38.10;;;;;;4954663;28;20038;-83
2022/08/01 12:48:13;;;;;;;1.50;1.40;;;37.00;38.00;;;;;;4969501;28;20027;-83
2022/08/01 12:50:41;;;;;;;1.60;0.90;;;37.00;38.70;;;;;;4947713;28;20054;-83
2022/08/01 12:53:09;;;;;;;1.52;1.23;;;37.00;38.80;;;;;;4939256;28;20026;-82
2022/08/01 12:55:45;;;;;;;1.35;1.20;;;37.00;38.60;;;;;;4923239;28;20027;-81
2022/08/01 12:58:13;;;;;;;1.20;1.10;;;37.10;36.90;;;;;;4926059;28;20025;-82
2022/08/01 13:00:42;;;;;;;1.30;1.17;;;37.10;37.70;;;;;;4941311;28;20344;-83